createdAt,value
2023-05-07T00:02:57.665Z,95
2023-05-07T00:06:22.764Z,95
2023-05-07T00:09:48.011Z,95
2023-05-07T00:13:13.287Z,95
2023-05-07T00:16:38.487Z,96
2023-05-07T00:20:03.769Z,96
2023-05-07T00:23:28.901Z,95
2023-05-07T00:26:54.123Z,94
2023-05-07T00:30:19.336Z,93
2023-05-07T00:33:44.555Z,93
2023-05-07T00:37:10.064Z,92
2023-05-07T00:40:35.224Z,93
2023-05-07T00:44:00.418Z,93
2023-05-07T00:47:25.616Z,93
2023-05-07T00:50:50.836Z,93
2023-05-07T00:54:16.081Z,93
2023-05-07T00:57:41.320Z,93
2023-05-07T01:01:06.531Z,93
2023-05-07T01:04:31.796Z,93
2023-05-07T01:07:56.930Z,93
2023-05-07T01:11:22.233Z,93
2023-05-07T01:14:47.344Z,93
2023-05-07T01:18:12.602Z,93
2023-05-07T01:21:37.786Z,94
2023-05-07T01:25:02.975Z,94
2023-05-07T01:28:28.330Z,93
2023-05-07T01:31:53.457Z,93
2023-05-07T01:35:18.656Z,92
2023-05-07T01:38:43.865Z,91
2023-05-07T01:42:09.066Z,91
2023-05-07T01:45:34.413Z,90
2023-05-07T01:48:59.503Z,90
2023-05-07T01:52:24.714Z,90
2023-05-07T01:55:49.920Z,90
2023-05-07T01:59:15.150Z,90
2023-05-07T02:02:40.559Z,90
2023-05-07T02:06:05.905Z,90
2023-05-07T02:09:31.075Z,91
2023-05-07T02:12:56.302Z,92
2023-05-07T02:16:21.486Z,94
2023-05-07T02:19:46.756Z,95
2023-05-07T02:23:11.868Z,95
2023-05-07T02:26:37.068Z,95
2023-05-07T02:30:02.291Z,95
2023-05-07T02:33:27.496Z,95
2023-05-07T02:36:52.785Z,94
2023-05-07T02:40:17.949Z,94
2023-05-07T02:43:43.155Z,93
2023-05-07T02:47:08.332Z,93
2023-05-07T02:50:33.519Z,94
2023-05-07T02:53:58.840Z,94
2023-05-07T02:57:23.950Z,94
2023-05-07T03:00:49.204Z,94
2023-05-07T03:04:14.383Z,93
2023-05-07T03:07:39.570Z,95
2023-05-07T03:11:04.882Z,97
2023-05-07T03:14:29.994Z,97
2023-05-07T03:17:55.291Z,97
2023-05-07T03:21:20.407Z,97
2023-05-07T03:24:45.618Z,97
2023-05-07T03:28:10.931Z,97
2023-05-07T03:31:36.083Z,97
2023-05-07T03:35:01.224Z,97
2023-05-07T03:38:26.426Z,97
2023-05-07T03:41:51.642Z,97
2023-05-07T03:45:16.983Z,98
2023-05-07T03:48:42.061Z,98
2023-05-07T03:52:07.216Z,98
2023-05-07T03:55:32.428Z,98
2023-05-07T03:58:57.649Z,98
2023-05-07T04:02:22.878Z,98
2023-05-07T04:05:47.985Z,98
2023-05-07T04:09:13.170Z,98
2023-05-07T04:12:38.380Z,98
2023-05-07T04:16:03.580Z,98
2023-05-07T04:19:28.797Z,98
2023-05-07T04:22:53.930Z,98
2023-05-07T04:26:19.164Z,98
2023-05-07T04:29:44.334Z,97
2023-05-07T04:33:09.569Z,97
2023-05-07T04:36:34.754Z,96
2023-05-07T04:39:59.916Z,97
2023-05-07T04:43:25.115Z,97
2023-05-07T04:46:50.324Z,97
2023-05-07T04:50:15.532Z,97
2023-05-07T04:53:40.839Z,97
2023-05-07T04:57:05.946Z,97
2023-05-07T05:00:31.076Z,97
2023-05-07T05:03:56.317Z,97
2023-05-07T05:07:21.455Z,97
2023-05-07T05:10:46.679Z,97
2023-05-07T05:14:11.842Z,96
2023-05-07T05:17:37.043Z,96
2023-05-07T05:21:02.178Z,97
2023-05-07T05:24:27.364Z,96
2023-05-07T05:27:52.587Z,95
2023-05-07T05:31:17.822Z,96
2023-05-07T05:34:42.887Z,96
2023-05-07T05:38:08.059Z,96
2023-05-07T05:41:33.238Z,96
2023-05-07T05:44:58.575Z,97
2023-05-07T05:48:23.624Z,98
2023-05-07T05:51:48.859Z,99
2023-05-07T05:55:14.082Z,99
2023-05-07T05:58:39.289Z,99
2023-05-07T06:02:04.657Z,99
2023-05-07T06:05:29.765Z,99
2023-05-07T06:08:54.849Z,99
2023-05-07T06:12:20.073Z,99
2023-05-07T06:15:45.271Z,99
2023-05-07T06:19:10.530Z,99
2023-05-07T06:22:35.650Z,99
2023-05-07T06:26:00.825Z,99
2023-05-07T06:29:26.003Z,97
2023-05-07T06:32:51.226Z,97
2023-05-07T06:36:16.428Z,98
2023-05-07T06:39:41.485Z,98
2023-05-07T06:43:06.641Z,97
2023-05-07T06:46:31.838Z,96
2023-05-07T06:49:56.973Z,95
2023-05-07T06:53:22.134Z,95
2023-05-07T06:56:47.255Z,95
2023-05-07T07:00:12.551Z,95
2023-05-07T07:03:37.501Z,95
2023-05-07T07:07:02.628Z,95
2023-05-07T07:10:27.947Z,96
2023-05-07T07:13:52.961Z,96
2023-05-07T07:17:18.792Z,96
2023-05-07T07:20:43.932Z,96
2023-05-07T07:24:09.050Z,96
2023-05-07T07:27:34.327Z,96
2023-05-07T07:30:59.438Z,95
2023-05-07T07:34:24.612Z,96
2023-05-07T07:37:49.810Z,95
2023-05-07T07:41:15.027Z,95
2023-05-07T07:44:40.267Z,94
2023-05-07T07:48:05.354Z,94
2023-05-07T07:51:30.541Z,93
2023-05-07T07:54:55.734Z,91
2023-05-07T07:58:21.040Z,90
2023-05-07T08:01:46.311Z,91
2023-05-07T08:05:11.451Z,89
2023-05-07T08:08:36.672Z,91
2023-05-07T08:12:01.879Z,90
2023-05-07T08:15:27.117Z,91
2023-05-07T08:18:52.445Z,90
2023-05-07T08:22:17.607Z,90
2023-05-07T08:25:42.826Z,89
2023-05-07T08:29:08.018Z,90
2023-05-07T08:32:33.248Z,88
2023-05-07T08:35:58.408Z,88
2023-05-07T08:39:23.566Z,89
2023-05-07T08:42:48.812Z,88
2023-05-07T08:46:14.007Z,88
2023-05-07T08:49:39.084Z,87
2023-05-07T08:53:04.395Z,86
2023-05-07T08:56:29.391Z,88
2023-05-07T08:59:54.559Z,87
2023-05-07T09:03:19.788Z,87
2023-05-07T09:06:44.973Z,86
2023-05-07T09:10:10.496Z,85
2023-05-07T09:13:35.366Z,86
2023-05-07T09:17:00.599Z,84
2023-05-07T09:20:25.846Z,84
2023-05-07T09:23:51.068Z,83
2023-05-07T09:27:16.388Z,84
2023-05-07T09:30:41.572Z,84
2023-05-07T09:34:06.820Z,83
2023-05-07T09:37:32.017Z,82
2023-05-07T09:40:57.316Z,83
2023-05-07T09:44:22.658Z,83
2023-05-07T09:47:47.833Z,82
2023-05-07T09:51:13.108Z,83
2023-05-07T09:54:38.341Z,81
2023-05-07T09:58:03.602Z,78
2023-05-07T10:01:28.898Z,78
2023-05-07T10:04:54.035Z,78
2023-05-07T10:08:19.262Z,78
2023-05-07T10:11:44.558Z,78
2023-05-07T10:15:10.025Z,78
2023-05-07T10:18:35.284Z,77
2023-05-07T10:22:00.327Z,78
2023-05-07T10:25:25.558Z,78
2023-05-07T10:28:50.795Z,77
2023-05-07T10:32:16.003Z,77
2023-05-07T10:35:41.405Z,77
2023-05-07T10:39:06.571Z,75
2023-05-07T10:42:31.877Z,75
2023-05-07T10:45:57.157Z,74
2023-05-07T10:49:24.052Z,75
2023-05-07T10:52:47.697Z,75
2023-05-07T10:56:12.806Z,75
2023-05-07T10:59:38.094Z,77
2023-05-07T11:03:03.383Z,77
2023-05-07T11:06:28.573Z,75
2023-05-07T11:09:53.853Z,76
2023-05-07T11:13:19.074Z,78
2023-05-07T11:16:44.367Z,74
2023-05-07T11:20:09.472Z,75
2023-05-07T11:23:34.771Z,76
2023-05-07T11:27:00.035Z,75
2023-05-07T11:30:25.470Z,77
2023-05-07T11:33:51.516Z,75
2023-05-07T11:37:16.750Z,74
2023-05-07T11:40:41.962Z,74
2023-05-07T11:44:07.305Z,75
2023-05-07T11:47:32.549Z,75
2023-05-07T11:50:57.729Z,75
2023-05-07T11:54:22.936Z,73
2023-05-07T11:57:48.162Z,75
2023-05-07T12:01:13.448Z,75
2023-05-07T12:04:38.683Z,77
2023-05-07T12:08:03.832Z,75
2023-05-07T12:11:29.065Z,74
2023-05-07T12:14:54.264Z,73
2023-05-07T12:18:19.495Z,73
2023-05-07T12:21:44.686Z,71
2023-05-07T12:25:10.200Z,74
2023-05-07T12:28:35.092Z,74
2023-05-07T12:32:00.495Z,73
2023-05-07T12:35:25.575Z,72
2023-05-07T12:38:50.776Z,73
2023-05-07T12:42:16.049Z,75
2023-05-07T12:45:41.340Z,74
2023-05-07T12:49:06.635Z,75
2023-05-07T12:52:31.882Z,74
2023-05-07T12:55:57.130Z,74
2023-05-07T12:59:22.372Z,73
2023-05-07T13:02:47.735Z,74
2023-05-07T13:06:12.944Z,72
2023-05-07T13:09:38.234Z,74
2023-05-07T13:13:03.437Z,75
2023-05-07T13:16:28.642Z,74
2023-05-07T13:19:53.919Z,76
2023-05-07T13:23:19.189Z,74
2023-05-07T13:26:45.775Z,73
2023-05-07T13:30:09.668Z,75
2023-05-07T13:33:34.864Z,72
2023-05-07T13:37:00.069Z,71
2023-05-07T13:40:25.313Z,72
2023-05-07T13:43:50.626Z,69
2023-05-07T13:47:15.846Z,71
2023-05-07T13:50:41.127Z,71
2023-05-07T13:54:06.320Z,73
2023-05-07T13:57:31.551Z,72
2023-05-07T14:00:56.798Z,73
2023-05-07T14:04:21.889Z,73
2023-05-07T14:07:47.085Z,73
2023-05-07T14:11:12.287Z,72
2023-05-07T14:14:37.451Z,73
2023-05-07T14:18:02.665Z,73
2023-05-07T14:21:27.716Z,73
2023-05-07T14:25:05.658Z,71
2023-05-07T14:28:18.050Z,74
2023-05-07T14:31:43.224Z,73
2023-05-07T14:35:08.438Z,72
2023-05-07T14:38:33.583Z,73
2023-05-07T14:41:58.793Z,72
2023-05-07T14:45:23.982Z,72
2023-05-07T14:48:49.149Z,73
2023-05-07T14:52:14.465Z,72
2023-05-07T14:55:39.704Z,73
2023-05-07T14:59:04.852Z,72
2023-05-07T15:02:30.383Z,72
2023-05-07T15:05:55.660Z,72
2023-05-07T15:09:20.853Z,74
2023-05-07T15:45:51.007Z,74
2023-05-07T15:49:16.125Z,75
2023-05-07T15:52:41.371Z,75
2023-05-07T15:56:06.616Z,76
2023-05-07T15:59:31.841Z,75
2023-05-07T16:02:57.105Z,75
2023-05-07T16:06:22.233Z,76
2023-05-07T16:09:47.435Z,75
2023-05-07T16:13:12.637Z,75
2023-05-07T16:16:37.831Z,75
2023-05-07T16:20:02.995Z,76
2023-05-07T16:23:28.194Z,76
2023-05-07T16:26:53.353Z,76
2023-05-07T16:30:18.626Z,77
2023-05-07T16:33:43.749Z,77
2023-05-07T16:37:08.972Z,77
2023-05-07T16:40:34.119Z,77
2023-05-07T16:43:59.375Z,76
2023-05-07T16:47:24.688Z,77
2023-05-07T16:50:49.777Z,78
2023-05-07T16:54:14.973Z,78
2023-05-07T16:57:40.131Z,78
2023-05-07T17:01:05.298Z,78
2023-05-07T17:04:30.468Z,79
2023-05-07T17:07:55.749Z,79
2023-05-07T17:11:21.025Z,79
2023-05-07T17:14:46.180Z,79
2023-05-07T17:18:11.429Z,79
2023-05-07T17:21:36.648Z,79
2023-05-07T17:25:01.859Z,80
2023-05-07T17:28:27.139Z,79
2023-05-07T17:31:52.358Z,79
2023-05-07T17:35:17.573Z,80
2023-05-07T17:38:42.783Z,79
2023-05-07T17:42:08.004Z,79
2023-05-07T17:45:33.304Z,79
2023-05-07T17:48:58.514Z,80
2023-05-07T17:52:23.703Z,80
2023-05-07T17:55:48.898Z,80
2023-05-07T17:59:14.144Z,80
2023-05-07T18:02:39.389Z,80
2023-05-07T18:06:04.527Z,80
2023-05-07T18:09:29.736Z,80
2023-05-07T18:12:55.362Z,80
2023-05-07T18:16:20.515Z,81
2023-05-07T18:19:45.697Z,80
2023-05-07T18:23:10.788Z,80
2023-05-07T18:26:35.921Z,81
2023-05-07T18:30:01.072Z,80
2023-05-07T18:33:26.250Z,80
2023-05-07T18:36:51.458Z,80
2023-05-07T18:40:16.615Z,81
2023-05-07T18:43:41.768Z,81
2023-05-07T18:47:06.899Z,81
2023-05-07T18:50:32.062Z,82
2023-05-07T18:53:57.226Z,82
2023-05-07T18:57:22.344Z,82
2023-05-07T19:00:47.579Z,82
2023-05-07T19:04:12.692Z,83
2023-05-07T19:07:37.832Z,83
2023-05-07T19:11:03.043Z,82
2023-05-07T19:14:28.119Z,83
2023-05-07T19:17:53.279Z,84
2023-05-07T19:21:18.398Z,84
2023-05-07T19:24:43.539Z,83
2023-05-07T19:28:08.689Z,84
2023-05-07T19:31:33.834Z,84
2023-05-07T19:34:58.956Z,84
2023-05-07T19:38:24.109Z,84
2023-05-07T19:41:49.244Z,84
2023-05-07T19:45:14.552Z,84
2023-05-07T19:48:39.554Z,85
2023-05-07T19:52:04.713Z,84
2023-05-07T19:55:29.859Z,85
2023-05-07T19:58:55.022Z,85
2023-05-07T20:02:20.349Z,85
2023-05-07T20:05:45.314Z,86
2023-05-07T20:09:10.455Z,86
2023-05-07T20:12:35.642Z,85
2023-05-07T20:16:00.879Z,86
2023-05-07T20:19:25.989Z,85
2023-05-07T20:22:51.112Z,85
2023-05-07T20:26:16.259Z,86
2023-05-07T20:29:41.406Z,86
2023-05-07T20:33:06.560Z,86
2023-05-07T20:36:31.718Z,86
2023-05-07T20:39:56.860Z,86
2023-05-07T20:43:22.026Z,86
2023-05-07T20:46:47.178Z,87
2023-05-07T20:50:12.574Z,87
2023-05-07T20:53:37.564Z,87
2023-05-07T20:57:02.675Z,87
2023-05-07T21:00:27.855Z,87
2023-05-07T21:03:53.031Z,86
2023-05-07T21:07:18.172Z,86
2023-05-07T21:10:43.362Z,86
2023-05-07T21:14:08.529Z,86
2023-05-07T21:17:33.697Z,86
2023-05-07T21:20:58.824Z,86
2023-05-07T21:24:23.997Z,86
2023-05-07T21:27:49.189Z,85
2023-05-07T21:31:14.397Z,86
2023-05-07T21:34:39.481Z,86
2023-05-07T21:38:04.619Z,86
2023-05-07T21:41:29.758Z,85
2023-05-07T21:44:54.934Z,85
2023-05-07T21:48:20.080Z,85
2023-05-07T21:51:45.232Z,85
2023-05-07T21:55:10.628Z,85
2023-05-07T21:58:35.539Z,85
2023-05-07T22:02:00.747Z,85
2023-05-07T22:05:25.873Z,86
2023-05-07T22:08:51.006Z,85
2023-05-07T22:12:16.169Z,85
2023-05-07T22:19:06.456Z,85
2023-05-07T22:22:31.588Z,85
2023-05-07T22:25:56.711Z,86
2023-05-07T22:29:21.886Z,86
2023-05-07T22:32:47.035Z,86
2023-05-07T22:36:12.189Z,86
2023-05-07T22:39:37.326Z,85
2023-05-07T22:43:02.466Z,85
2023-05-07T22:46:27.815Z,85
2023-05-07T22:49:52.787Z,85
2023-05-07T22:53:17.949Z,85
2023-05-07T22:56:43.099Z,85
2023-05-07T23:00:08.266Z,84
2023-05-07T23:03:33.449Z,85
2023-05-07T23:06:58.552Z,86
2023-05-07T23:10:23.737Z,87
2023-05-07T23:13:48.892Z,87
2023-05-07T23:17:14.140Z,88
2023-05-07T23:20:39.222Z,89
2023-05-07T23:24:04.561Z,90
2023-05-07T23:27:29.764Z,90
2023-05-07T23:30:54.903Z,90
2023-05-07T23:34:20.048Z,89
2023-05-07T23:37:45.278Z,90
2023-05-07T23:41:10.442Z,89
2023-05-07T23:44:35.641Z,89
2023-05-07T23:48:00.803Z,89
2023-05-07T23:51:25.935Z,89
2023-05-07T23:54:51.082Z,89
2023-05-07T23:58:16.214Z,88
